Time;durP1;ratioP1;P1;durP2;ratioP2;P2;SDS_P1;SDS_P2;PMS_P1;PMS_P2;Temp;Humidity;BMP_temperature;BMP_pressure;BME280_temperature;BME280_humidity;BME280_pressure;Samples;Min_cycle;Max_cycle;Signal;HPM_P1;HPM_P2
2021/05/21 00:01:37;;;;;;;4.65;1.13;;;13.00;81.70;;;;;;5092687;28;20157;-85
2021/05/21 00:04:03;;;;;;;4.72;1.30;;;13.00;81.50;;;;;;5091920;28;20545;-87
2021/05/21 00:06:29;;;;;;;4.10;1.40;;;13.10;81.90;;;;;;5092024;28;20503;-86
2021/05/21 00:08:55;;;;;;;4.22;1.40;;;13.10;81.50;;;;;;5092585;28;20044;-86
2021/05/21 00:11:21;;;;;;;3.83;1.20;;;13.00;81.60;;;;;;5092181;28;20480;-86
2021/05/21 00:13:48;;;;;;;3.42;1.33;;;13.00;81.90;;;;;;5092718;28;20127;-86
2021/05/21 00:16:13;;;;;;;4.03;1.20;;;13.00;82.30;;;;;;5092457;28;20126;-85
2021/05/21 00:18:47;;;;;;;3.00;1.13;;;13.00;81.50;;;;;;5091846;28;20401;-86
2021/05/21 00:21:13;;;;;;;4.43;1.30;;;13.00;81.60;;;;;;5092439;28;20052;-86
2021/05/21 00:23:38;;;;;;;4.43;1.20;;;13.00;81.60;;;;;;5092490;28;20044;-85
2021/05/21 00:26:04;;;;;;;4.50;1.23;;;13.00;82.10;;;;;;5091309;28;20142;-86
2021/05/21 00:28:29;;;;;;;3.65;1.20;;;13.00;82.20;;;;;;5092787;28;20044;-86
2021/05/21 00:30:55;;;;;;;5.63;1.20;;;13.00;82.40;;;;;;5092606;28;20048;-85
2021/05/21 00:33:21;;;;;;;3.65;1.20;;;13.00;82.30;;;;;;5092003;28;20048;-85
2021/05/21 00:35:46;;;;;;;4.18;1.30;;;13.00;82.50;;;;;;5092757;28;20040;-84
2021/05/21 00:38:12;;;;;;;4.07;1.13;;;13.00;82.60;;;;;;5092092;28;20182;-85
2021/05/21 00:40:38;;;;;;;5.20;1.10;;;13.00;81.80;;;;;;5091921;28;20048;-87
2021/05/21 00:43:03;;;;;;;6.43;1.13;;;13.00;81.70;;;;;;5092088;28;20483;-87
2021/05/21 00:45:29;;;;;;;4.63;1.40;;;13.00;81.50;;;;;;5092075;28;20174;-87
2021/05/21 00:47:54;;;;;;;4.07;1.10;;;13.00;81.90;;;;;;5092152;28;20048;-86
2021/05/21 00:50:20;;;;;;;5.05;1.30;;;13.00;81.80;;;;;;5092952;28;20044;-86
2021/05/21 00:52:46;;;;;;;4.90;1.20;;;13.00;82.60;;;;;;5091919;28;20159;-86
2021/05/21 00:55:13;;;;;;;4.18;1.20;;;13.00;81.80;;;;;;5092275;28;20047;-87
2021/05/21 00:57:42;;;;;;;5.05;1.20;;;13.00;81.20;;;;;;5092985;28;20105;-86
2021/05/21 01:00:09;;;;;;;4.50;1.20;;;13.00;81.70;;;;;;5091330;28;20456;-86
2021/05/21 01:02:35;;;;;;;3.20;1.20;;;12.90;81.30;;;;;;5092427;28;20048;-86
2021/05/21 01:05:01;;;;;;;7.05;1.38;;;13.00;81.50;;;;;;5092051;28;20450;-86
2021/05/21 01:07:27;;;;;;;5.18;1.23;;;13.00;81.10;;;;;;5091127;28;20044;-87
2021/05/21 01:09:53;;;;;;;4.25;0.98;;;13.00;81.30;;;;;;5091747;28;20418;-86
2021/05/21 01:12:21;;;;;;;4.85;1.00;;;13.00;81.30;;;;;;5093243;28;20051;-85
2021/05/21 01:14:51;;;;;;;4.45;1.00;;;13.00;81.50;;;;;;5095382;28;20059;-87
2021/05/21 01:17:18;;;;;;;5.88;1.55;;;13.00;81.50;;;;;;5096111;28;20055;-86
2021/05/21 01:19:44;;;;;;;4.43;1.02;;;13.00;81.60;;;;;;5095971;28;20046;-87
2021/05/21 01:22:11;;;;;;;5.53;1.23;;;13.00;81.40;;;;;;5094627;28;20048;-85
2021/05/21 01:24:37;;;;;;;4.32;1.20;;;13.00;81.70;;;;;;5095693;28;20093;-86
2021/05/21 01:27:04;;;;;;;2.45;0.95;;;13.00;81.60;;;;;;5095229;28;20055;-85
2021/05/21 01:29:31;;;;;;;4.35;1.05;;;13.00;81.40;;;;;;5094922;28;20500;-86
2021/05/21 01:31:57;;;;;;;4.53;1.25;;;13.00;80.90;;;;;;5095513;28;20127;-86
2021/05/21 01:34:22;;;;;;;3.63;1.08;;;13.00;80.90;;;;;;5095523;28;20135;-86
2021/05/21 01:36:48;;;;;;;4.50;1.17;;;13.10;80.80;;;;;;5094871;28;20055;-86
2021/05/21 01:39:14;;;;;;;3.30;1.00;;;13.00;80.80;;;;;;5095290;28;20101;-86
2021/05/21 01:41:45;;;;;;;6.35;1.00;;;13.10;81.20;;;;;;5095039;28;20063;-86
2021/05/21 01:44:13;;;;;;;7.47;1.10;;;13.10;81.00;;;;;;5095383;28;20047;-87
2021/05/21 01:46:39;;;;;;;4.45;1.20;;;13.10;80.80;;;;;;5095410;28;20051;-86
2021/05/21 01:49:05;;;;;;;2.97;0.90;;;13.10;80.90;;;;;;5094373;28;20051;-85
2021/05/21 01:51:32;;;;;;;3.38;1.05;;;13.10;80.90;;;;;;5095338;28;20113;-84
2021/05/21 01:54:16;;;;;;;4.07;1.10;;;13.10;81.00;;;;;;5094945;28;20071;-85
2021/05/21 01:56:44;;;;;;;7.30;1.50;;;13.10;81.00;;;;;;5094351;28;20093;-85
2021/05/21 01:59:09;;;;;;;11.77;2.15;;;13.10;81.80;;;;;;5094879;28;20052;-85
2021/05/21 02:01:35;;;;;;;9.77;1.75;;;13.10;81.90;;;;;;5095264;28;20044;-84
2021/05/21 02:04:02;;;;;;;11.65;2.00;;;13.10;82.60;;;;;;5094127;28;20051;-85
2021/05/21 02:06:29;;;;;;;12.02;2.30;;;13.00;82.80;;;;;;5094860;28;20586;-85
2021/05/21 02:08:54;;;;;;;15.88;3.00;;;13.00;83.50;;;;;;5094860;28;20139;-88
2021/05/21 02:11:20;;;;;;;12.50;2.50;;;13.00;84.30;;;;;;5094612;28;20484;-87
2021/05/21 02:13:46;;;;;;;11.63;2.50;;;12.90;85.00;;;;;;5094967;28;20180;-87
2021/05/21 02:16:12;;;;;;;13.00;2.40;;;12.80;85.30;;;;;;5094239;28;20052;-86
2021/05/21 02:18:38;;;;;;;18.65;2.60;;;12.80;85.70;;;;;;5094060;28;20051;-86
2021/05/21 02:21:04;;;;;;;10.45;2.33;;;12.70;85.90;;;;;;5094016;28;20056;-86
2021/05/21 02:23:31;;;;;;;18.20;2.80;;;12.70;86.20;;;;;;5093170;28;20154;-86
2021/05/21 02:25:56;;;;;;;13.18;2.42;;;12.70;86.50;;;;;;5092602;28;20054;-86
2021/05/21 02:28:22;;;;;;;13.20;2.42;;;12.70;86.50;;;;;;5093501;28;20044;-86
2021/05/21 02:30:48;;;;;;;9.95;2.08;;;12.60;86.70;;;;;;5093743;28;20048;-87
2021/05/21 02:33:14;;;;;;;18.33;2.75;;;12.60;87.00;;;;;;5092662;28;20403;-87
2021/05/21 02:35:40;;;;;;;16.67;2.72;;;12.60;87.20;;;;;;5093409;28;20047;-86
2021/05/21 02:38:05;;;;;;;12.70;2.53;;;12.60;87.40;;;;;;5092627;28;20396;-87
2021/05/21 02:40:31;;;;;;;18.05;3.20;;;12.50;87.40;;;;;;5093392;28;20126;-87
2021/05/21 02:42:57;;;;;;;17.13;3.33;;;12.50;87.40;;;;;;5093247;28;20051;-85
2021/05/21 02:45:24;;;;;;;14.05;2.72;;;12.50;87.40;;;;;;5092904;28;20051;-85
2021/05/21 02:47:50;;;;;;;14.88;2.65;;;12.40;87.10;;;;;;5093128;28;20052;-86
2021/05/21 02:50:16;;;;;;;16.45;2.58;;;12.40;87.00;;;;;;5093409;28;20051;-87
2021/05/21 02:52:41;;;;;;;21.55;3.20;;;12.30;87.20;;;;;;5092811;28;20040;-88
2021/05/21 02:55:08;;;;;;;12.43;2.60;;;12.30;87.10;;;;;;5093299;28;20127;-88
2021/05/21 02:57:34;;;;;;;13.20;2.67;;;12.30;87.50;;;;;;5093030;28;20044;-86
2021/05/21 02:59:59;;;;;;;17.48;3.03;;;12.30;87.70;;;;;;5092193;28;20048;-86
2021/05/21 03:02:25;;;;;;;12.82;2.45;;;12.20;87.60;;;;;;5093132;28;20381;-86
2021/05/21 03:04:54;;;;;;;10.50;2.35;;;12.20;87.80;;;;;;5093354;28;20043;-87
2021/05/21 03:07:20;;;;;;;15.50;2.60;;;12.20;88.10;;;;;;5092162;28;20093;-87
2021/05/21 03:09:46;;;;;;;17.00;2.72;;;12.10;88.50;;;;;;5093349;28;20048;-87
2021/05/21 03:12:12;;;;;;;17.35;3.35;;;12.10;88.70;;;;;;5092678;28;20048;-87
2021/05/21 03:14:38;;;;;;;14.00;2.58;;;12.10;89.00;;;;;;5030931;22;561822;-87
2021/05/21 03:17:04;;;;;;;15.02;2.92;;;12.00;89.20;;;;;;5032821;28;20417;-87
2021/05/21 03:19:30;;;;;;;16.33;2.65;;;12.00;89.50;;;;;;5033710;28;20163;-88
2021/05/21 03:21:59;;;;;;;9.32;2.22;;;12.00;90.10;;;;;;5032581;28;20060;-86
2021/05/21 03:24:25;;;;;;;14.10;2.47;;;11.90;89.90;;;;;;5033451;28;20042;-87
2021/05/21 03:26:51;;;;;;;15.23;2.53;;;11.90;89.70;;;;;;5033594;28;20553;-85
2021/05/21 03:29:17;;;;;;;11.00;2.08;;;11.90;89.50;;;;;;5032441;28;20481;-87
2021/05/21 03:31:43;;;;;;;15.95;2.88;;;11.80;89.80;;;;;;5033280;28;20050;-86
2021/05/21 03:34:10;;;;;;;15.70;2.88;;;11.80;89.80;;;;;;5032142;28;20069;-86
2021/05/21 03:36:35;;;;;;;11.15;2.50;;;11.80;89.90;;;;;;5032827;28;20048;-87
2021/05/21 03:39:06;;;;;;;14.45;2.83;;;11.70;89.90;;;;;;5032645;28;20461;-86
2021/05/21 03:41:32;;;;;;;18.45;2.90;;;11.70;90.10;;;;;;5032368;28;20045;-87
2021/05/21 03:43:58;;;;;;;16.25;2.83;;;11.70;89.80;;;;;;5032874;28;20057;-86
2021/05/21 03:46:23;;;;;;;15.18;3.00;;;11.70;89.60;;;;;;5033024;28;20057;-85
2021/05/21 03:48:49;;;;;;;16.25;2.67;;;11.60;89.50;;;;;;5032363;28;20050;-86
2021/05/21 03:51:15;;;;;;;16.73;2.70;;;11.60;89.40;;;;;;5032915;28;20429;-86
2021/05/21 03:53:40;;;;;;;17.35;2.63;;;11.50;89.20;;;;;;5033046;28;20482;-86
2021/05/21 03:56:06;;;;;;;16.17;2.45;;;11.50;89.50;;;;;;5031956;28;20561;-86
2021/05/21 03:58:33;;;;;;;18.02;2.85;;;11.50;89.70;;;;;;5032880;28;20135;-86
2021/05/21 04:01:00;;;;;;;16.50;2.58;;;11.40;89.40;;;;;;5032658;28;20056;-86
2021/05/21 04:03:26;;;;;;;19.05;2.90;;;11.40;89.20;;;;;;5032263;28;20480;-87
2021/05/21 04:05:52;;;;;;;18.65;3.25;;;11.40;89.40;;;;;;5032679;28;20051;-86
2021/05/21 04:08:18;;;;;;;15.93;2.65;;;11.30;90.00;;;;;;5033038;28;20057;-87
2021/05/21 04:10:44;;;;;;;17.50;3.00;;;11.30;89.80;;;;;;5032032;28;20048;-86
2021/05/21 04:13:09;;;;;;;17.45;2.85;;;11.30;90.00;;;;;;5032064;28;20493;-87
2021/05/21 04:15:37;;;;;;;18.65;2.70;;;11.30;90.00;;;;;;5032504;28;20485;-86
2021/05/21 04:18:03;;;;;;;18.73;3.22;;;11.30;89.80;;;;;;5021827;28;20528;-86
2021/05/21 04:20:29;;;;;;;17.02;2.72;;;11.30;89.80;;;;;;5013207;28;20049;-86
2021/05/21 04:22:56;;;;;;;19.75;3.08;;;11.30;89.70;;;;;;5014156;28;20045;-87
2021/05/21 04:25:22;;;;;;;14.32;2.72;;;11.30;89.60;;;;;;5020473;28;20047;-86
2021/05/21 04:27:47;;;;;;;23.42;3.28;;;11.30;89.70;;;;;;5023765;28;20057;-87
2021/05/21 04:30:14;;;;;;;18.98;2.80;;;11.30;89.30;;;;;;5020959;28;20038;-87
2021/05/21 04:32:40;;;;;;;20.50;3.38;;;11.30;89.00;;;;;;5020900;28;20137;-87
2021/05/21 04:35:07;;;;;;;16.90;2.90;;;11.30;88.90;;;;;;5022649;28;20121;-87
2021/05/21 04:37:36;;;;;;;17.27;2.67;;;11.30;89.10;;;;;;5018448;28;20080;-87
2021/05/21 04:40:03;;;;;;;18.58;2.97;;;11.30;89.70;;;;;;5020945;28;20041;-88
2021/05/21 04:42:29;;;;;;;15.88;2.70;;;11.30;89.90;;;;;;5021792;28;20057;-87
2021/05/21 04:44:55;;;;;;;19.63;3.55;;;11.30;89.80;;;;;;5016756;28;20490;-87
2021/05/21 04:47:21;;;;;;;20.38;3.10;;;11.30;89.60;;;;;;5023796;28;20046;-87
2021/05/21 04:49:47;;;;;;;21.05;3.67;;;11.30;89.30;;;;;;5026079;28;20074;-88
2021/05/21 04:52:12;;;;;;;15.90;2.83;;;11.30;89.10;;;;;;5025339;28;20041;-87
2021/05/21 04:54:39;;;;;;;14.90;2.92;;;11.20;89.70;;;;;;5024266;28;20074;-86
2021/05/21 04:57:06;;;;;;;24.10;3.42;;;11.20;90.10;;;;;;5023874;28;20076;-88
2021/05/21 04:59:33;;;;;;;16.95;3.45;;;11.20;90.00;;;;;;5025397;28;20045;-87
2021/05/21 05:01:59;;;;;;;15.52;2.70;;;11.20;90.00;;;;;;5024161;28;20119;-87
2021/05/21 05:04:25;;;;;;;17.17;3.15;;;11.20;90.20;;;;;;5027172;28;20112;-86
2021/05/21 05:06:51;;;;;;;17.17;3.25;;;11.20;90.10;;;;;;5022133;28;20056;-86
2021/05/21 05:09:18;;;;;;;24.42;3.47;;;11.20;90.00;;;;;;5024128;28;20082;-85
2021/05/21 05:11:44;;;;;;;22.48;3.53;;;11.20;89.90;;;;;;5024223;28;20049;-88
2021/05/21 05:14:12;;;;;;;21.30;3.85;;;11.30;89.90;;;;;;5024310;28;20456;-85
2021/05/21 05:16:41;;;;;;;20.13;3.40;;;11.20;89.90;;;;;;5026577;28;20049;-85
2021/05/21 05:19:08;;;;;;;21.65;3.38;;;11.20;89.90;;;;;;5023427;28;20045;-86
2021/05/21 05:21:41;;;;;;;22.05;3.72;;;11.20;90.00;;;;;;5025271;28;20053;-86
2021/05/21 05:24:20;;;;;;;20.17;3.65;;;11.20;90.20;;;;;;5029708;28;20112;-87
2021/05/21 05:26:48;;;;;;;19.98;3.15;;;11.30;90.20;;;;;;5035156;28;20065;-86
2021/05/21 05:29:14;;;;;;;20.05;3.42;;;11.30;90.20;;;;;;5034643;28;20091;-86
2021/05/21 05:31:42;;;;;;;19.40;3.20;;;11.30;90.20;;;;;;5008165;28;20141;-87
2021/05/21 05:34:08;;;;;;;20.38;3.35;;;11.30;90.30;;;;;;5018507;28;20414;-85
2021/05/21 05:36:34;;;;;;;23.20;3.63;;;11.30;90.40;;;;;;5015053;28;20053;-85
2021/05/21 05:38:59;;;;;;;17.88;3.47;;;11.30;90.40;;;;;;5015204;28;20050;-85
2021/05/21 05:41:25;;;;;;;23.60;3.72;;;11.40;90.40;;;;;;5014647;28;20516;-84
2021/05/21 05:43:51;;;;;;;23.33;4.10;;;11.40;90.30;;;;;;5017933;28;20109;-83
2021/05/21 05:46:17;;;;;;;19.95;3.45;;;11.40;90.30;;;;;;5015275;28;20050;-91
2021/05/21 05:48:46;;;;;;;20.10;3.25;;;11.40;90.30;;;;;;5014898;28;20046;-89
2021/05/21 05:51:15;;;;;;;22.00;3.67;;;11.50;90.30;;;;;;5015849;28;20053;-87
2021/05/21 05:53:41;;;;;;;20.15;3.38;;;11.50;90.20;;;;;;5025196;28;20112;-87
2021/05/21 05:56:13;;;;;;;27.45;4.45;;;11.50;90.20;;;;;;5019220;28;20050;-88
2021/05/21 05:58:44;;;;;;;24.00;4.03;;;11.50;90.00;;;;;;5014005;28;20100;-90
2021/05/21 06:01:39;;;;;;;21.45;3.35;;;11.50;90.10;;;;;;5014661;28;20049;-88
2021/05/21 06:04:05;;;;;;;21.55;3.70;;;11.60;90.20;;;;;;5000938;28;20057;-88
2021/05/21 06:06:31;;;;;;;22.30;3.75;;;11.60;90.10;;;;;;5018888;28;20046;-89
2021/05/21 06:08:57;;;;;;;20.08;3.75;;;11.60;90.20;;;;;;5026849;28;20104;-88
2021/05/21 06:11:27;;;;;;;18.80;3.50;;;11.60;90.10;;;;;;5027950;28;20053;-88
2021/05/21 06:13:53;;;;;;;21.50;3.60;;;11.70;90.20;;;;;;5014076;28;20058;-88
2021/05/21 06:16:19;;;;;;;24.85;3.90;;;11.70;90.10;;;;;;5029727;28;20060;-88
2021/05/21 06:18:54;;;;;;;21.45;3.88;;;11.70;89.90;;;;;;5034457;28;20041;-88
2021/05/21 06:21:23;;;;;;;24.88;3.78;;;11.80;89.90;;;;;;5034603;28;20437;-88
2021/05/21 06:23:54;;;;;;;20.65;4.00;;;11.90;89.90;;;;;;5033323;28;20057;-89
2021/05/21 06:28:57;;;;;;;18.77;3.67;;;12.00;89.20;;;;;;5032819;28;20485;-88
2021/05/21 06:31:31;;;;;;;21.40;3.72;;;12.10;89.30;;;;;;5024673;28;20053;-89
2021/05/21 06:34:10;;;;;;;22.35;3.72;;;12.20;88.80;;;;;;5037948;28;20041;-88
2021/05/21 06:39:44;;;;;;;21.58;3.53;;;12.30;88.30;;;;;;4979746;28;20046;-90
2021/05/21 06:42:13;;;;;;;22.83;3.65;;;12.40;88.10;;;;;;4972205;28;20190;-88
2021/05/21 06:44:44;;;;;;;20.58;3.33;;;12.50;87.90;;;;;;5000714;28;20057;-89
2021/05/21 06:47:25;;;;;;;19.08;3.35;;;12.50;87.90;;;;;;5045682;28;20075;-88
2021/05/21 06:49:59;;;;;;;23.55;3.67;;;12.50;87.00;;;;;;5036559;28;20064;-90
2021/05/21 06:52:29;;;;;;;19.05;3.30;;;12.60;86.90;;;;;;5016237;28;20135;-89
2021/05/21 06:54:55;;;;;;;20.15;3.45;;;12.50;86.90;;;;;;5028816;28;20081;-89
2021/05/21 06:57:40;;;;;;;22.17;3.90;;;12.60;86.90;;;;;;5015889;28;20103;-88
2021/05/21 07:00:15;;;;;;;17.20;3.60;;;12.60;86.60;;;;;;5021763;28;20049;-88
2021/05/21 07:02:47;;;;;;;15.18;3.05;;;12.60;86.20;;;;;;5032442;28;20080;-88
2021/05/21 07:05:50;;;;;;;19.52;3.35;;;12.70;86.50;;;;;;5030096;28;20532;-88
2021/05/21 07:08:19;;;;;;;21.48;3.88;;;12.70;86.30;;;;;;4967814;28;20050;-88
2021/05/21 07:11:40;;;;;;;14.90;3.28;;;12.60;85.90;;;;;;4935060;29;20058;-88
2021/05/21 07:14:14;;;;;;;18.52;2.88;;;12.70;86.70;;;;;;4953254;28;20397;-88
2021/05/21 07:16:50;;;;;;;20.02;3.65;;;12.70;86.20;;;;;;4969617;28;20469;-87
2021/05/21 07:19:21;;;;;;;17.27;3.22;;;12.70;85.30;;;;;;4963511;28;20066;-88
2021/05/21 07:21:49;;;;;;;18.35;3.72;;;12.70;84.90;;;;;;4954768;28;20046;-89
2021/05/21 07:24:21;;;;;;;19.67;3.60;;;12.70;85.00;;;;;;4967938;28;20051;-88
2021/05/21 07:26:49;;;;;;;;;;;12.80;85.10;;;;;;4962277;28;20089;-88
2021/05/21 07:29:15;;;;;;;17.23;3.53;;;12.80;84.80;;;;;;4970095;28;19922;-87
2021/05/21 07:31:49;;;;;;;20.00;3.83;;;12.90;85.20;;;;;;4988306;28;20485;-88
2021/05/21 07:34:30;;;;;;;16.58;3.42;;;13.00;83.90;;;;;;5032067;28;20060;-88
2021/05/21 07:37:00;;;;;;;17.73;3.47;;;13.10;84.50;;;;;;5029057;28;20090;-88
2021/05/21 07:39:32;;;;;;;18.85;3.30;;;13.20;84.30;;;;;;5032991;28;20049;-88
2021/05/21 07:42:00;;;;;;;23.83;4.28;;;13.20;84.30;;;;;;5032228;28;20048;-88
2021/05/21 07:44:26;;;;;;;14.45;3.03;;;13.30;84.10;;;;;;5032418;28;20045;-88
2021/05/21 07:46:55;;;;;;;19.10;3.67;;;13.30;83.60;;;;;;5030497;28;20060;-87
2021/05/21 07:49:24;;;;;;;21.35;3.40;;;13.30;83.60;;;;;;5023355;28;20054;-88
2021/05/21 07:52:13;;;;;;;21.58;3.92;;;13.30;83.50;;;;;;5025769;28;20084;-87
2021/05/21 07:54:41;;;;;;;18.23;3.40;;;13.30;82.50;;;;;;5029446;28;20057;-90
2021/05/21 07:57:30;;;;;;;20.23;3.28;;;13.30;82.20;;;;;;5019293;28;20061;-88
2021/05/21 08:00:05;;;;;;;17.75;3.22;;;13.30;82.20;;;;;;5032980;28;20076;-89
2021/05/21 08:03:51;;;;;;;17.73;3.15;;;13.30;81.90;;;;;;5038295;28;20048;-91
2021/05/21 08:06:35;;;;;;;19.25;3.28;;;13.20;81.30;;;;;;4980648;28;20046;-91
2021/05/21 08:09:05;;;;;;;17.25;3.35;;;13.20;81.70;;;;;;4963641;28;20133;-90
2021/05/21 08:12:27;;;;;;;16.77;3.25;;;13.20;81.50;;;;;;4948284;28;20082;-90
2021/05/21 08:15:19;;;;;;;22.08;3.10;;;13.20;80.20;;;;;;4962999;28;20062;-89
2021/05/21 08:18:48;;;;;;;17.27;2.75;;;13.30;81.10;;;;;;5047298;22;20401;-90
2021/05/21 08:21:17;;;;;;;16.38;3.00;;;13.30;79.40;;;;;;5040710;28;20063;-90
2021/05/21 08:23:43;;;;;;;17.50;3.22;;;13.30;80.10;;;;;;5057756;28;20484;-85
2021/05/21 08:26:11;;;;;;;17.00;3.45;;;13.40;80.10;;;;;;5057444;28;20488;-86
2021/05/21 08:28:37;;;;;;;19.92;3.22;;;13.40;79.20;;;;;;5058655;28;20056;-87
2021/05/21 08:31:15;;;;;;;19.17;3.40;;;13.50;79.30;;;;;;5056961;28;20056;-86
2021/05/21 08:33:44;;;;;;;20.25;3.30;;;13.50;78.70;;;;;;5057774;28;20496;-86
2021/05/21 08:36:22;;;;;;;15.55;3.05;;;13.60;79.10;;;;;;5057897;28;20045;-86
2021/05/21 08:39:05;;;;;;;19.67;3.35;;;13.60;78.20;;;;;;5042194;28;20496;-88
2021/05/21 08:41:38;;;;;;;19.55;3.60;;;13.60;78.10;;;;;;5058654;28;20084;-87
2021/05/21 08:44:19;;;;;;;19.17;3.05;;;13.70;78.30;;;;;;5058231;28;20056;-87
2021/05/21 08:46:59;;;;;;;20.55;3.15;;;13.70;77.30;;;;;;5049599;28;20049;-88
2021/05/21 08:49:25;;;;;;;18.88;3.17;;;13.70;77.10;;;;;;5056838;28;20056;-86
2021/05/21 08:51:55;;;;;;;19.05;3.22;;;13.70;76.70;;;;;;5040696;28;20045;-85
2021/05/21 08:54:20;;;;;;;15.07;3.20;;;13.80;76.80;;;;;;5057836;28;20053;-89
2021/05/21 08:56:46;;;;;;;18.63;3.00;;;13.80;76.50;;;;;;5056424;28;20106;-91
2021/05/21 08:59:21;;;;;;;15.57;2.97;;;13.80;75.50;;;;;;5057786;28;20056;-88
2021/05/21 09:01:55;;;;;;;18.75;3.03;;;13.80;75.40;;;;;;5055963;28;20063;-86
2021/05/21 09:04:47;;;;;;;17.45;3.30;;;13.80;75.50;;;;;;5053178;28;20044;-85
2021/05/21 09:07:32;;;;;;;17.25;3.25;;;13.80;75.80;;;;;;5056999;28;20059;-86
2021/05/21 09:10:11;;;;;;;15.80;2.75;;;13.80;74.80;;;;;;5057893;28;20378;-86
2021/05/21 09:12:41;;;;;;;15.07;2.95;;;13.80;75.30;;;;;;5057194;28;20394;-86
2021/05/21 09:15:22;;;;;;;20.33;3.65;;;13.80;75.20;;;;;;5058226;28;20083;-85
2021/05/21 09:17:58;;;;;;;16.38;3.13;;;13.90;74.90;;;;;;5058506;28;20052;-87
2021/05/21 09:20:27;;;;;;;18.27;3.22;;;13.80;75.00;;;;;;5057252;28;20075;-86
2021/05/21 09:23:10;;;;;;;12.13;2.65;;;13.90;74.90;;;;;;5058039;28;20060;-86
2021/05/21 09:25:51;;;;;;;13.50;2.60;;;13.90;74.00;;;;;;5057942;28;20067;-86
2021/05/21 09:28:37;;;;;;;17.70;3.03;;;13.90;74.40;;;;;;5058135;28;20057;-87
2021/05/21 09:31:24;;;;;;;16.58;2.78;;;13.90;73.60;;;;;;5047184;28;20394;-86
2021/05/21 09:33:53;;;;;;;15.60;2.80;;;13.90;74.20;;;;;;5053373;28;20104;-86
2021/05/21 09:36:33;;;;;;;15.70;2.88;;;13.90;75.50;;;;;;5054582;28;20072;-86
2021/05/21 09:39:00;;;;;;;19.52;3.20;;;13.90;74.60;;;;;;5050273;28;20045;-86
2021/05/21 09:42:01;;;;;;;20.08;2.80;;;13.90;74.80;;;;;;5050206;28;20076;-86
2021/05/21 09:44:29;;;;;;;13.00;3.30;;;14.00;74.50;;;;;;5019138;28;20048;-85
2021/05/21 09:46:55;;;;;;;11.13;2.85;;;14.00;75.00;;;;;;5054287;28;20477;-86
2021/05/21 09:49:30;;;;;;;18.02;3.20;;;14.00;74.80;;;;;;5054133;28;20056;-86
2021/05/21 09:52:00;;;;;;;18.05;3.10;;;14.00;74.90;;;;;;5051735;28;20580;-86
2021/05/21 09:54:27;;;;;;;14.77;3.10;;;14.10;75.50;;;;;;5053574;28;20095;-86
2021/05/21 09:56:59;;;;;;;13.85;2.90;;;14.20;75.10;;;;;;5054416;28;20111;-87
2021/05/21 09:59:42;;;;;;;13.40;2.87;;;14.20;74.80;;;;;;5054210;28;20051;-86
2021/05/21 10:02:30;;;;;;;13.17;2.47;;;14.20;76.20;;;;;;5048585;28;20349;-86
2021/05/21 10:04:57;;;;;;;17.77;2.58;;;14.20;77.30;;;;;;5049701;28;20296;-87
2021/05/21 10:07:23;;;;;;;12.25;2.28;;;14.10;78.80;;;;;;5053741;28;20052;-87
2021/05/21 10:09:49;;;;;;;14.50;2.78;;;14.00;79.30;;;;;;5054343;28;20136;-87
2021/05/21 10:12:15;;;;;;;14.82;2.50;;;14.00;80.00;;;;;;5054319;28;20072;-86
2021/05/21 10:14:48;;;;;;;14.18;2.58;;;13.90;79.90;;;;;;5054417;28;20103;-87
2021/05/21 10:17:22;;;;;;;13.80;2.47;;;13.80;80.10;;;;;;5052928;28;20049;-87
2021/05/21 10:19:49;;;;;;;12.93;2.58;;;13.80;80.50;;;;;;5053882;28;20060;-86
2021/05/21 10:22:28;;;;;;;12.55;2.90;;;13.80;81.20;;;;;;5049581;28;20067;-86
2021/05/21 10:24:59;;;;;;;13.43;2.35;;;13.70;82.00;;;;;;5038655;28;20057;-85
2021/05/21 10:27:29;;;;;;;14.20;2.95;;;13.70;81.90;;;;;;5054013;28;20052;-86
2021/05/21 10:30:04;;;;;;;12.20;2.47;;;13.80;82.10;;;;;;5045149;28;20057;-85
2021/05/21 10:32:30;;;;;;;11.57;2.10;;;13.80;82.10;;;;;;5054072;28;20056;-84
2021/05/21 10:34:58;;;;;;;16.25;2.30;;;13.90;81.60;;;;;;5053373;28;20052;-85
2021/05/21 10:37:24;;;;;;;10.57;2.30;;;13.90;81.50;;;;;;5052997;28;20128;-85
2021/05/21 10:40:00;;;;;;;11.65;2.33;;;14.00;81.20;;;;;;5054086;28;20127;-85
2021/05/21 10:42:26;;;;;;;9.93;2.45;;;14.10;80.60;;;;;;5053981;28;20053;-84
2021/05/21 10:44:53;;;;;;;12.75;2.50;;;14.10;79.90;;;;;;5052601;28;20055;-84
2021/05/21 10:47:25;;;;;;;13.45;2.40;;;14.20;80.50;;;;;;5054025;28;20049;-85
2021/05/21 10:49:51;;;;;;;12.83;2.57;;;14.20;80.40;;;;;;5053700;28;20499;-85
2021/05/21 10:52:18;;;;;;;11.88;2.33;;;14.20;79.70;;;;;;5053184;28;20300;-85
2021/05/21 10:54:48;;;;;;;14.68;3.17;;;14.20;79.90;;;;;;5053719;28;20069;-86
2021/05/21 10:57:16;;;;;;;11.88;2.47;;;14.20;80.30;;;;;;5053412;28;20443;-86
2021/05/21 10:59:42;;;;;;;13.60;2.55;;;14.30;80.90;;;;;;5052785;28;20587;-87
2021/05/21 11:02:14;;;;;;;15.27;3.03;;;14.30;81.50;;;;;;5053244;28;20052;-86
2021/05/21 11:04:40;;;;;;;10.95;2.60;;;14.30;82.10;;;;;;5052726;28;20045;-87
2021/05/21 11:07:06;;;;;;;12.63;2.60;;;14.30;82.90;;;;;;5053273;28;20451;-87
2021/05/21 11:09:45;;;;;;;15.48;2.95;;;14.20;82.70;;;;;;5053192;28;20072;-89
2021/05/21 11:12:15;;;;;;;14.00;2.50;;;14.20;82.60;;;;;;5051917;28;20072;-85
2021/05/21 11:14:49;;;;;;;11.65;2.45;;;14.10;83.20;;;;;;5053408;28;20106;-87
2021/05/21 11:17:26;;;;;;;11.32;2.50;;;14.10;83.60;;;;;;5052548;28;20489;-85
2021/05/21 11:19:55;;;;;;;12.77;2.50;;;14.20;83.60;;;;;;5051877;28;20051;-86
2021/05/21 11:22:37;;;;;;;13.55;2.50;;;14.20;82.90;;;;;;5052867;28;20131;-85
2021/05/21 11:25:12;;;;;;;10.25;2.47;;;14.30;82.60;;;;;;5052328;28;20040;-85
2021/05/21 11:27:38;;;;;;;9.30;2.67;;;14.30;83.00;;;;;;5052262;28;20053;-85
2021/05/21 11:30:15;;;;;;;12.43;2.78;;;14.40;82.60;;;;;;5052285;28;20059;-86
2021/05/21 11:32:41;;;;;;;14.10;2.78;;;14.50;82.10;;;;;;5051925;28;20065;-85
2021/05/21 11:35:11;;;;;;;14.15;2.90;;;14.50;82.10;;;;;;5052343;28;20497;-85
2021/05/21 11:37:40;;;;;;;13.02;2.40;;;14.60;80.10;;;;;;5052936;28;20045;-87
2021/05/21 11:40:07;;;;;;;14.13;2.83;;;14.60;79.60;;;;;;5052061;28;20162;-88
2021/05/21 11:42:35;;;;;;;12.32;2.75;;;14.60;80.00;;;;;;5053084;28;20106;-88
2021/05/21 11:45:02;;;;;;;10.63;2.47;;;14.60;79.90;;;;;;5052422;28;20049;-87
2021/05/21 11:47:31;;;;;;;14.38;2.75;;;14.60;79.90;;;;;;5051148;28;20044;-88
2021/05/21 11:49:59;;;;;;;15.07;2.60;;;14.60;79.30;;;;;;5052484;28;20083;-88
2021/05/21 11:52:25;;;;;;;10.88;2.20;;;14.60;79.10;;;;;;5052450;28;20098;-88
2021/05/21 11:54:51;;;;;;;14.07;2.35;;;14.60;78.90;;;;;;5051860;28;20056;-88
2021/05/21 11:57:19;;;;;;;11.35;2.85;;;14.60;78.40;;;;;;5051866;28;20049;-88
2021/05/21 11:59:49;;;;;;;14.30;2.75;;;14.60;77.30;;;;;;5052510;28;20114;-88
2021/05/21 12:02:16;;;;;;;13.82;2.30;;;14.70;77.10;;;;;;5051596;28;20076;-87
2021/05/21 12:04:44;;;;;;;11.68;2.45;;;14.70;77.30;;;;;;5052468;28;20052;-87
2021/05/21 12:07:21;;;;;;;13.65;2.65;;;14.70;77.00;;;;;;5052322;28;20061;-84
2021/05/21 12:10:13;;;;;;;12.02;2.20;;;14.80;75.70;;;;;;5051825;28;20059;-84
2021/05/21 12:12:39;;;;;;;13.32;2.40;;;14.70;75.80;;;;;;5048796;28;20056;-84
2021/05/21 12:15:12;;;;;;;12.02;2.60;;;14.60;77.10;;;;;;5051298;28;20091;-84
2021/05/21 12:17:52;;;;;;;15.82;2.35;;;14.60;77.60;;;;;;5051766;28;20049;-83
2021/05/21 12:20:20;;;;;;;12.63;2.45;;;14.60;78.00;;;;;;5052012;28;20190;-84
2021/05/21 12:23:03;;;;;;;9.07;2.25;;;14.50;78.00;;;;;;5034987;28;20055;-84
2021/05/21 12:25:31;;;;;;;16.02;2.90;;;14.50;78.60;;;;;;5052225;28;20436;-84
2021/05/21 12:28:00;;;;;;;13.52;2.67;;;14.60;79.50;;;;;;5051714;28;20048;-84
2021/05/21 12:30:28;;;;;;;12.77;2.85;;;14.60;80.10;;;;;;5051205;28;20057;-84
2021/05/21 12:32:53;;;;;;;14.40;2.75;;;14.60;79.80;;;;;;5051729;28;20049;-84
2021/05/21 12:35:34;;;;;;;16.98;2.70;;;14.70;78.90;;;;;;5051756;28;20053;-85
2021/05/21 12:38:02;;;;;;;11.07;2.20;;;14.70;78.60;;;;;;5051058;28;20057;-84
2021/05/21 12:40:28;;;;;;;14.63;2.53;;;14.80;79.40;;;;;;5051810;28;20077;-84
2021/05/21 12:42:54;;;;;;;15.18;2.78;;;14.90;77.50;;;;;;5050948;28;20083;-84
2021/05/21 12:45:20;;;;;;;18.45;2.58;;;15.00;77.70;;;;;;5052299;28;20103;-84
2021/05/21 12:47:47;;;;;;;11.50;2.17;;;15.10;77.30;;;;;;5051567;28;20476;-85
2021/05/21 12:50:15;;;;;;;9.63;2.00;;;15.10;76.40;;;;;;5050765;28;20080;-84
2021/05/21 12:52:57;;;;;;;9.80;1.92;;;15.20;75.10;;;;;;5050589;28;20447;-87
2021/05/21 12:55:26;;;;;;;10.32;2.38;;;15.20;74.10;;;;;;5051359;28;20044;-86
2021/05/21 12:57:56;;;;;;;11.45;2.30;;;15.30;74.10;;;;;;5051338;28;20057;-87
2021/05/21 13:00:27;;;;;;;16.30;2.67;;;15.30;72.40;;;;;;5052170;28;20072;-83